Time;durP1;ratioP1;P1;durP2;ratioP2;P2;SDS_P1;SDS_P2;PMS_P1;PMS_P2;Temp;Humidity;BMP_temperature;BMP_pressure;BME280_temperature;BME280_humidity;BME280_pressure;Samples;Min_cycle;Max_cycle;Signal;HPM_P1;HPM_P2
2021/12/04 00:02:27;;;;;;;0.30;0.30;;;-3.50;99.90;;;;;;5257128;28;20076;-72
2021/12/04 00:05:00;;;;;;;0.40;0.40;;;-3.60;99.90;;;;;;5262561;28;20047;-72
2021/12/04 00:07:36;;;;;;;0.40;0.40;;;-3.60;99.90;;;;;;5260202;28;20036;-72
2021/12/04 00:10:16;;;;;;;0.40;0.40;;;-3.60;99.90;;;;;;5241084;28;20150;-72
2021/12/04 00:12:52;;;;;;;0.50;0.50;;;-3.70;99.90;;;;;;5248172;28;20035;-72
2021/12/04 00:15:25;;;;;;;0.40;0.40;;;-3.70;99.90;;;;;;5242383;28;20195;-72
2021/12/04 00:17:57;;;;;;;0.40;0.40;;;-3.70;99.90;;;;;;5259258;28;20024;-72
2021/12/04 00:20:35;;;;;;;0.50;0.50;;;-3.70;99.90;;;;;;5261162;28;20507;-71
2021/12/04 00:23:07;;;;;;;0.40;0.40;;;-3.60;99.90;;;;;;5261419;28;20028;-71
2021/12/04 00:25:38;;;;;;;0.40;0.40;;;-3.70;99.90;;;;;;5261614;28;20053;-72
2021/12/04 00:28:11;;;;;;;0.40;0.40;;;-3.70;99.90;;;;;;5261929;28;20032;-72
2021/12/04 00:30:44;;;;;;;0.30;0.30;;;-3.70;99.90;;;;;;5261014;28;20023;-71
2021/12/04 00:33:21;;;;;;;0.40;0.40;;;-3.70;99.90;;;;;;5261641;28;20032;-72
2021/12/04 00:35:58;;;;;;;0.47;0.47;;;-3.70;99.90;;;;;;5262896;28;20073;-72
2021/12/04 00:49:29;;;;;;;0.40;0.40;;;-3.90;99.90;;;;;;5304551;27;20397;-72
2021/12/04 00:52:02;;;;;;;0.43;0.43;;;-3.90;99.90;;;;;;5313251;27;20027;-72
2021/12/04 00:54:33;;;;;;;0.50;0.50;;;-3.80;99.90;;;;;;5325815;27;20085;-72
2021/12/04 00:57:04;;;;;;;0.50;0.50;;;-3.80;99.90;;;;;;5313655;27;20043;-72
2021/12/04 00:59:38;;;;;;;0.40;0.40;;;-3.80;99.90;;;;;;5298026;27;20535;-71
2021/12/04 01:02:11;;;;;;;0.50;0.50;;;-3.80;99.90;;;;;;5308134;27;20377;-72
2021/12/04 01:04:45;;;;;;;0.40;0.40;;;-3.80;99.90;;;;;;5295683;27;20054;-72
2021/12/04 01:07:16;;;;;;;0.40;0.40;;;-3.80;99.90;;;;;;5319303;27;20106;-72
2021/12/04 01:09:50;;;;;;;0.40;0.40;;;-3.80;99.90;;;;;;5315552;27;20042;-73
2021/12/04 01:12:21;;;;;;;0.50;0.50;;;-3.80;99.90;;;;;;5308529;27;20037;-72
2021/12/04 01:14:55;;;;;;;0.30;0.30;;;-3.80;99.90;;;;;;5312188;27;20030;-72
2021/12/04 01:17:26;;;;;;;0.60;0.60;;;-3.80;99.90;;;;;;5272371;28;20023;-72
2021/12/04 01:19:59;;;;;;;0.40;0.40;;;-3.80;99.90;;;;;;5292425;27;20041;-71
2021/12/04 01:22:33;;;;;;;0.40;0.40;;;-3.70;99.90;;;;;;5324499;27;20063;-72
2021/12/04 01:25:05;;;;;;;0.40;0.40;;;-3.70;99.90;;;;;;5297918;27;20035;-72
2021/12/04 01:27:38;;;;;;;0.30;0.30;;;-3.80;99.90;;;;;;5258916;27;20084;-72
2021/12/04 01:30:09;;;;;;;0.40;0.40;;;-3.80;99.90;;;;;;5293915;27;20019;-72
2021/12/04 01:32:42;;;;;;;0.30;0.30;;;-3.80;99.90;;;;;;5304169;27;20036;-72
2021/12/04 01:35:13;;;;;;;0.52;0.52;;;-3.80;99.90;;;;;;5274706;28;20503;-73
2021/12/04 01:37:47;;;;;;;0.60;0.60;;;-3.70;99.90;;;;;;5287392;27;20046;-72
2021/12/04 01:40:19;;;;;;;0.50;0.50;;;-3.70;99.90;;;;;;5278274;27;20678;-73
2021/12/04 01:42:50;;;;;;;1.17;1.17;;;-3.80;99.90;;;;;;5293070;27;20102;-72
2021/12/04 01:45:21;;;;;;;0.43;0.43;;;-3.90;99.90;;;;;;5309972;27;20034;-72
2021/12/04 01:47:59;;;;;;;0.80;0.80;;;-4.10;99.90;;;;;;5310667;27;20348;-73
2021/12/04 01:50:34;;;;;;;0.40;0.40;;;-4.10;99.90;;;;;;5292761;27;20026;-73
2021/12/04 01:53:06;;;;;;;0.70;0.70;;;-4.20;99.90;;;;;;5270248;28;20071;-72
2021/12/04 01:55:40;;;;;;;0.40;0.40;;;-4.20;99.90;;;;;;5270712;28;20548;-72
2021/12/04 01:58:14;;;;;;;;;;;-4.20;99.90;;;;;;5289932;28;20363;-72
2021/12/04 02:00:45;;;;;;;4.23;3.80;;;-4.20;99.90;;;;;;5289777;28;19912;-72
2021/12/04 02:03:18;;;;;;;1.23;1.23;;;-4.10;99.90;;;;;;5302506;27;20575;-72
2021/12/04 02:05:50;;;;;;;0.40;0.40;;;-4.10;99.90;;;;;;5275382;27;20043;-73
2021/12/04 02:08:24;;;;;;;0.40;0.40;;;-4.20;99.90;;;;;;5287203;27;20600;-72
2021/12/04 02:10:59;;;;;;;0.43;0.43;;;-4.30;99.90;;;;;;5305286;27;20089;-72
2021/12/04 02:13:35;;;;;;;0.30;0.30;;;-4.40;99.90;;;;;;5286948;27;20023;-72
2021/12/04 02:16:20;;;;;;;0.40;0.40;;;-4.40;99.90;;;;;;5307030;27;20030;-72
2021/12/04 02:18:51;;;;;;;0.40;0.40;;;-4.40;99.90;;;;;;5272031;27;20035;-72
2021/12/04 02:21:22;;;;;;;2.10;2.00;;;-4.40;99.90;;;;;;5288557;27;20149;-74
2021/12/04 02:23:53;;;;;;;0.50;0.50;;;-4.40;99.90;;;;;;5313890;27;20011;-72
2021/12/04 02:26:27;;;;;;;0.50;0.50;;;-4.40;99.90;;;;;;5293998;27;20049;-72
2021/12/04 02:29:00;;;;;;;0.50;0.50;;;-4.50;99.90;;;;;;5312385;27;20026;-72
2021/12/04 02:31:31;;;;;;;0.30;0.30;;;-4.50;99.90;;;;;;5290445;27;20095;-72
2021/12/04 02:34:02;;;;;;;0.30;0.30;;;-4.50;99.90;;;;;;5289591;27;20035;-72
2021/12/04 02:36:33;;;;;;;0.90;0.90;;;-4.50;99.90;;;;;;5269665;28;20038;-72
2021/12/04 02:39:10;;;;;;;0.33;0.33;;;-4.50;99.90;;;;;;5255811;27;20039;-72
2021/12/04 02:41:41;;;;;;;0.40;0.40;;;-4.50;99.90;;;;;;5303931;27;20033;-72
2021/12/04 02:44:14;;;;;;;0.80;0.80;;;-4.40;99.90;;;;;;5269284;28;20508;-73
2021/12/04 02:46:45;;;;;;;0.38;0.38;;;-4.40;99.90;;;;;;5268319;28;20036;-73
2021/12/04 02:49:16;;;;;;;0.40;0.40;;;-4.40;99.90;;;;;;5249917;28;20103;-72
2021/12/04 02:51:50;;;;;;;0.50;0.50;;;-4.30;99.90;;;;;;5270510;27;20480;-73
2021/12/04 02:54:24;;;;;;;0.40;0.40;;;-4.20;99.90;;;;;;5268367;28;20043;-73
2021/12/04 02:56:56;;;;;;;0.52;0.52;;;-4.10;99.90;;;;;;5285008;28;20038;-73
2021/12/04 02:59:27;;;;;;;1.90;1.80;;;-4.10;99.90;;;;;;5285851;27;20037;-73
2021/12/04 03:02:00;;;;;;;0.43;0.43;;;-4.10;99.90;;;;;;5269045;28;20536;-72
2021/12/04 03:04:32;;;;;;;0.50;0.50;;;-4.10;99.90;;;;;;5280865;27;20098;-72
2021/12/04 03:07:06;;;;;;;1.93;1.83;;;-4.10;99.90;;;;;;5287958;27;20477;-72
2021/12/04 03:09:44;;;;;;;0.30;0.30;;;-4.10;99.90;;;;;;5310868;27;20035;-72
2021/12/04 03:12:19;;;;;;;0.50;0.50;;;-4.10;99.90;;;;;;5305775;27;20030;-72
2021/12/04 03:14:51;;;;;;;0.43;0.43;;;-4.00;99.90;;;;;;5305194;27;20198;-72
2021/12/04 03:17:26;;;;;;;0.50;0.50;;;-3.90;99.90;;;;;;5287441;27;20493;-72
2021/12/04 03:20:01;;;;;;;0.77;0.77;;;-3.90;99.90;;;;;;5306357;27;20186;-73
2021/12/04 03:22:41;;;;;;;0.40;0.40;;;-3.90;99.90;;;;;;5306242;27;20023;-73
2021/12/04 03:25:15;;;;;;;0.40;0.40;;;-3.90;99.90;;;;;;5278498;27;20023;-73
2021/12/04 03:27:52;;;;;;;;;;;-3.80;99.90;;;;;;5272591;27;20099;-73
2021/12/04 03:30:39;;;;;;;0.53;0.53;;;-3.80;99.90;;;;;;5305042;27;19992;-73
2021/12/04 03:41:22;;;;;;;0.40;0.40;;;-3.60;99.90;;;;;;5261358;28;20039;-73
2021/12/04 03:43:56;;;;;;;0.40;0.40;;;-3.60;99.90;;;;;;5264493;28;20043;-73
2021/12/04 03:46:27;;;;;;;0.60;0.60;;;-3.50;99.90;;;;;;5265688;28;20093;-73
2021/12/04 03:48:58;;;;;;;0.60;0.60;;;-3.60;99.90;;;;;;5276668;28;20040;-73
2021/12/04 03:51:28;;;;;;;1.90;1.80;;;-3.60;99.90;;;;;;5265053;28;20036;-73
2021/12/04 03:54:02;;;;;;;0.50;0.50;;;-3.80;99.90;;;;;;5258804;28;20039;-73
2021/12/04 03:56:36;;;;;;;0.40;0.40;;;-3.80;99.90;;;;;;5240735;28;20306;-73
2021/12/04 03:59:13;;;;;;;0.43;0.43;;;-3.90;99.90;;;;;;5257650;28;20020;-72
2021/12/04 04:01:44;;;;;;;0.40;0.40;;;-4.00;99.90;;;;;;5264948;28;20036;-73
2021/12/04 04:04:15;;;;;;;0.47;0.47;;;-4.00;99.90;;;;;;5258097;28;20085;-73
2021/12/04 04:06:48;;;;;;;0.60;0.60;;;-4.10;99.90;;;;;;5249642;28;20062;-72
2021/12/04 04:09:19;;;;;;;0.43;0.43;;;-4.00;99.90;;;;;;5255623;28;20054;-73
2021/12/04 04:11:54;;;;;;;0.40;0.40;;;-4.00;99.90;;;;;;5262645;28;20488;-72
2021/12/04 04:14:30;;;;;;;0.40;0.40;;;-4.10;99.90;;;;;;5254949;28;20039;-72
2021/12/04 04:17:04;;;;;;;0.40;0.40;;;-4.10;99.90;;;;;;5245004;28;20036;-74
2021/12/04 04:19:35;;;;;;;0.50;0.50;;;-4.20;99.90;;;;;;5245210;28;20342;-72
2021/12/04 04:22:07;;;;;;;0.40;0.40;;;-4.20;99.90;;;;;;5242642;28;20032;-74
2021/12/04 04:24:38;;;;;;;0.40;0.40;;;-4.30;99.90;;;;;;5258754;28;20068;-72
2021/12/04 04:27:12;;;;;;;0.57;0.57;;;-4.40;99.90;;;;;;5261707;28;20209;-72
2021/12/04 04:29:43;;;;;;;0.40;0.40;;;-4.30;99.90;;;;;;5290749;27;20019;-72
2021/12/04 04:32:19;;;;;;;0.40;0.40;;;-4.30;99.90;;;;;;5282106;28;20279;-72
2021/12/04 04:34:53;;;;;;;0.70;0.70;;;-4.30;99.90;;;;;;5270099;28;20036;-72
2021/12/04 04:37:38;;;;;;;0.50;0.50;;;-4.10;99.90;;;;;;5250551;28;20085;-72
2021/12/04 04:57:44;;;;;;;0.30;0.30;;;-3.50;99.90;;;;;;5261315;28;20028;-71
2021/12/04 05:11:39;;;;;;;0.40;0.40;;;-3.40;99.90;;;;;;5246642;28;20439;-72
2021/12/04 05:14:19;;;;;;;0.40;0.40;;;-3.50;99.90;;;;;;5261202;28;20024;-72
2021/12/04 05:17:01;;;;;;;0.40;0.40;;;-3.40;99.90;;;;;;5241477;28;20056;-72
2021/12/04 05:22:14;;;;;;;0.40;0.40;;;-3.30;99.90;;;;;;5248723;28;20055;-71
2021/12/04 05:24:51;;;;;;;0.87;0.87;;;-3.20;99.90;;;;;;5272800;28;20016;-72
2021/12/04 05:27:22;;;;;;;0.60;0.60;;;-3.00;99.90;;;;;;5213108;28;20039;-72
2021/12/04 05:29:53;;;;;;;0.60;0.60;;;-2.80;99.90;;;;;;5239057;28;20024;-72
2021/12/04 05:32:24;;;;;;;0.40;0.40;;;-2.60;99.90;;;;;;5270675;28;20322;-72
2021/12/04 05:34:57;;;;;;;0.60;0.60;;;-2.30;99.90;;;;;;5252918;28;20338;-73
2021/12/04 05:37:28;;;;;;;0.40;0.40;;;-2.00;99.90;;;;;;5261433;28;20340;-72
2021/12/04 05:40:06;;;;;;;0.50;0.50;;;-1.70;99.90;;;;;;5259706;28;20280;-72
2021/12/04 05:42:41;;;;;;;0.50;0.50;;;-1.60;99.90;;;;;;5257438;28;20106;-73
2021/12/04 05:45:22;;;;;;;0.50;0.50;;;-1.40;99.90;;;;;;5265531;28;20063;-73
2021/12/04 05:48:08;;;;;;;0.60;0.60;;;-1.30;99.90;;;;;;5247712;28;20036;-73
2021/12/04 05:53:25;;;;;;;0.40;0.40;;;-1.20;99.90;;;;;;5263193;28;20240;-73
2021/12/04 05:55:56;;;;;;;0.40;0.40;;;-1.10;99.90;;;;;;5263314;28;20028;-73
2021/12/04 05:58:34;;;;;;;0.40;0.40;;;-1.10;99.90;;;;;;5265103;28;20619;-73
2021/12/04 06:01:09;;;;;;;0.80;0.80;;;-1.10;99.90;;;;;;5259401;28;20088;-73
2021/12/04 06:03:40;;;;;;;0.50;0.50;;;-1.10;99.90;;;;;;5258763;28;20039;-73
2021/12/04 06:06:11;;;;;;;0.47;0.47;;;-1.00;99.90;;;;;;5238569;28;20031;-73
2021/12/04 06:08:43;;;;;;;0.50;0.50;;;-1.00;99.90;;;;;;5262269;28;20495;-73
2021/12/04 06:11:19;;;;;;;0.57;0.57;;;-0.90;99.90;;;;;;5263491;28;20282;-73
2021/12/04 06:13:56;;;;;;;0.40;0.40;;;-0.80;99.90;;;;;;5264636;28;20051;-73
2021/12/04 06:16:26;;;;;;;0.40;0.40;;;-0.80;99.90;;;;;;5263421;28;20053;-73
2021/12/04 06:18:59;;;;;;;0.50;0.50;;;-0.80;99.90;;;;;;5264199;28;20032;-73
2021/12/04 06:24:19;;;;;;;0.40;0.40;;;-0.60;99.90;;;;;;5262017;28;20028;-73
2021/12/04 06:26:51;;;;;;;0.50;0.50;;;-0.60;99.90;;;;;;5261895;28;20027;-73
2021/12/04 06:29:24;;;;;;;0.40;0.40;;;-0.60;99.90;;;;;;5261742;28;20245;-73
2021/12/04 06:31:55;;;;;;;0.40;0.40;;;-0.60;99.90;;;;;;5241809;28;20027;-73
2021/12/04 06:34:27;;;;;;;0.40;0.40;;;-0.50;99.90;;;;;;5244482;28;20381;-73
2021/12/04 06:37:03;;;;;;;0.40;0.40;;;-0.50;99.90;;;;;;5229224;28;20322;-73
2021/12/04 06:39:34;;;;;;;0.40;0.40;;;-0.50;99.90;;;;;;5263355;28;20038;-73
2021/12/04 06:42:07;;;;;;;0.52;0.52;;;-0.50;99.90;;;;;;5262905;28;20569;-73
2021/12/04 06:44:42;;;;;;;0.60;0.60;;;-0.40;99.90;;;;;;5262871;28;20048;-73
2021/12/04 06:47:13;;;;;;;0.50;0.50;;;-0.40;99.90;;;;;;5263838;28;20337;-73
2021/12/04 06:49:44;;;;;;;0.50;0.50;;;-0.30;99.90;;;;;;5248016;28;20036;-73
2021/12/04 06:52:19;;;;;;;0.40;0.40;;;-0.20;99.90;;;;;;5257902;28;20024;-73
2021/12/04 06:54:58;;;;;;;0.40;0.40;;;-0.10;99.90;;;;;;5243044;28;20455;-73
2021/12/04 06:57:31;;;;;;;0.47;0.47;;;0.00;99.90;;;;;;5243860;28;20105;-73
2021/12/04 07:00:07;;;;;;;0.50;0.50;;;0.10;99.90;;;;;;5244438;28;20112;-73
2021/12/04 07:02:41;;;;;;;0.90;0.90;;;0.10;99.90;;;;;;5234678;28;20052;-73
2021/12/04 07:05:12;;;;;;;0.40;0.40;;;0.10;99.90;;;;;;5245133;28;20040;-73
2021/12/04 07:07:43;;;;;;;0.43;0.43;;;-0.10;99.90;;;;;;5264920;28;20027;-72
2021/12/04 07:10:14;;;;;;;0.40;0.40;;;-0.20;99.90;;;;;;5257217;28;20532;-73
2021/12/04 07:12:45;;;;;;;0.50;0.50;;;-0.30;99.90;;;;;;5241482;28;20036;-73
2021/12/04 07:15:16;;;;;;;0.50;0.50;;;-0.40;99.90;;;;;;5240956;28;20020;-73
2021/12/04 07:17:47;;;;;;;0.40;0.40;;;-0.40;99.90;;;;;;5241718;28;20044;-73
2021/12/04 07:20:17;;;;;;;0.50;0.50;;;-0.30;99.90;;;;;;5262188;28;20039;-73
2021/12/04 07:22:49;;;;;;;1.05;1.05;;;-0.20;99.90;;;;;;5252898;28;20032;-73
2021/12/04 07:25:20;;;;;;;0.80;0.80;;;-0.30;99.90;;;;;;5254280;28;20454;-73
2021/12/04 07:27:51;;;;;;;0.47;0.47;;;-0.20;99.90;;;;;;5259118;28;20032;-73
2021/12/04 07:30:24;;;;;;;0.90;0.90;;;-0.10;99.90;;;;;;5255137;28;20098;-72
2021/12/04 07:32:55;;;;;;;0.90;0.90;;;0.00;99.90;;;;;;5261426;28;20031;-73
2021/12/04 07:35:27;;;;;;;0.70;0.70;;;0.10;99.90;;;;;;5264549;28;20522;-72
2021/12/04 07:38:01;;;;;;;0.47;0.47;;;0.10;99.90;;;;;;5246175;28;20370;-72
2021/12/04 07:40:32;;;;;;;0.70;0.70;;;0.10;99.90;;;;;;5245134;28;20024;-72
2021/12/04 07:43:05;;;;;;;0.57;0.57;;;0.00;99.90;;;;;;5262420;28;20272;-72
2021/12/04 07:45:38;;;;;;;0.50;0.50;;;0.10;99.90;;;;;;5262663;28;20420;-72
2021/12/04 07:48:11;;;;;;;0.50;0.50;;;0.20;99.90;;;;;;5244743;28;20104;-72
2021/12/04 07:50:42;;;;;;;0.55;0.55;;;0.30;99.90;;;;;;5263165;28;20020;-72
2021/12/04 07:53:13;;;;;;;1.17;1.17;;;0.40;99.90;;;;;;5233063;28;20024;-72
2021/12/04 07:55:46;;;;;;;0.90;0.90;;;0.40;99.90;;;;;;5233122;28;20071;-73
2021/12/04 07:58:20;;;;;;;0.70;0.70;;;0.40;99.90;;;;;;5258536;28;20069;-74
2021/12/04 08:00:51;;;;;;;0.50;0.50;;;0.40;99.90;;;;;;5261069;28;20069;-73
2021/12/04 08:03:24;;;;;;;0.63;0.63;;;0.40;99.90;;;;;;5248153;28;20108;-73
2021/12/04 08:05:55;;;;;;;4.50;3.20;;;0.50;99.90;;;;;;5239788;28;20024;-73
2021/12/04 08:08:28;;;;;;;0.50;0.50;;;0.50;99.90;;;;;;5240539;28;20089;-73
2021/12/04 08:10:59;;;;;;;0.93;0.90;;;0.50;99.90;;;;;;5249389;28;20097;-73
2021/12/04 08:13:33;;;;;;;0.52;0.52;;;0.50;99.90;;;;;;5260969;28;20028;-74
2021/12/04 08:16:06;;;;;;;1.23;1.23;;;0.60;99.90;;;;;;5262390;28;20028;-73
2021/12/04 08:18:40;;;;;;;0.63;0.63;;;0.70;99.90;;;;;;5232559;28;20052;-74
2021/12/04 08:21:11;;;;;;;0.50;0.50;;;0.70;99.90;;;;;;5232084;28;20107;-73
2021/12/04 08:23:44;;;;;;;0.60;0.60;;;0.90;99.90;;;;;;5262331;28;20051;-73
2021/12/04 08:26:18;;;;;;;0.77;0.77;;;0.90;99.90;;;;;;5269144;28;20332;-75
2021/12/04 08:28:51;;;;;;;0.40;0.40;;;1.00;99.90;;;;;;5254866;28;20099;-74
2021/12/04 08:31:24;;;;;;;0.80;0.80;;;1.10;99.90;;;;;;5261278;28;20040;-75
2021/12/04 08:33:55;;;;;;;1.40;1.40;;;1.00;99.90;;;;;;5257325;28;20059;-75
2021/12/04 08:36:32;;;;;;;0.50;0.50;;;1.00;99.90;;;;;;5254738;28;20077;-75
2021/12/04 08:39:05;;;;;;;0.50;0.50;;;1.00;99.90;;;;;;5253723;28;20458;-75
2021/12/04 08:41:40;;;;;;;0.68;0.68;;;1.00;99.90;;;;;;5260642;28;20466;-75
2021/12/04 08:44:16;;;;;;;0.60;0.60;;;1.10;99.90;;;;;;5263253;28;20019;-76
2021/12/04 08:46:47;;;;;;;0.50;0.50;;;1.10;99.90;;;;;;5261595;28;20020;-76
2021/12/04 08:49:21;;;;;;;0.60;0.60;;;1.20;99.90;;;;;;5236345;28;20033;-75
2021/12/04 08:51:57;;;;;;;0.80;0.80;;;1.30;99.90;;;;;;5247770;28;20561;-75
2021/12/04 08:54:28;;;;;;;0.70;0.70;;;1.20;99.90;;;;;;5241721;28;20065;-76
2021/12/04 08:56:59;;;;;;;0.40;0.40;;;1.30;99.90;;;;;;5239408;28;20040;-76
2021/12/04 08:59:34;;;;;;;1.10;1.05;;;1.40;99.90;;;;;;5242992;28;20092;-78
2021/12/04 09:02:06;;;;;;;0.40;0.40;;;1.40;99.90;;;;;;5240827;28;20022;-77
2021/12/04 09:04:40;;;;;;;0.50;0.50;;;1.60;99.90;;;;;;5258659;28;20060;-78
2021/12/04 09:07:11;;;;;;;0.98;0.98;;;1.70;99.90;;;;;;5241570;28;20073;-78
2021/12/04 09:09:42;;;;;;;0.80;0.80;;;1.90;99.90;;;;;;5240521;28;20119;-77
2021/12/04 09:12:15;;;;;;;0.77;0.77;;;2.00;99.90;;;;;;5253963;28;20276;-77
2021/12/04 09:14:47;;;;;;;0.63;0.63;;;2.20;99.90;;;;;;5252180;28;20334;-78
2021/12/04 09:17:19;;;;;;;0.57;0.57;;;2.20;99.90;;;;;;5250610;28;20048;-78
2021/12/04 09:19:50;;;;;;;0.57;0.57;;;2.10;99.90;;;;;;5242579;28;20094;-78
2021/12/04 09:22:25;;;;;;;1.52;1.42;;;2.40;99.90;;;;;;5266234;28;20032;-78
2021/12/04 09:25:02;;;;;;;0.40;0.40;;;2.60;99.90;;;;;;5257600;28;20024;-78
2021/12/04 10:21:56;;;;;;;0.90;0.90;;;4.10;99.90;;;;;;5265641;28;20119;-73
2021/12/04 10:35:19;;;;;;;0.60;0.60;;;4.70;99.90;;;;;;5240340;28;20032;-77
2021/12/04 10:38:00;;;;;;;1.10;1.10;;;4.80;99.90;;;;;;5250544;28;20040;-77
2021/12/04 10:40:44;;;;;;;0.60;0.60;;;5.10;99.90;;;;;;5270964;28;20066;-77
2021/12/04 10:43:41;;;;;;;0.70;0.70;;;5.10;99.90;;;;;;5262992;28;20042;-77
2021/12/04 10:46:14;;;;;;;0.70;0.70;;;5.00;99.90;;;;;;5260670;28;20048;-76
2021/12/04 10:49:04;;;;;;;0.73;0.73;;;5.00;99.90;;;;;;5261228;28;20043;-76
2021/12/04 10:51:51;;;;;;;0.50;0.50;;;4.70;99.90;;;;;;5258140;28;20077;-80
2021/12/04 10:54:27;;;;;;;0.80;0.80;;;4.40;99.90;;;;;;5255444;28;20020;-77
2021/12/04 11:00:53;;;;;;;0.50;0.50;;;4.30;99.90;;;;;;5240282;28;20063;-78
2021/12/04 11:21:41;;;;;;;0.60;0.60;;;4.60;99.90;;;;;;5254619;28;20028;-76
2021/12/04 11:38:27;;;;;;;0.40;0.40;;;3.90;99.90;;;;;;5261836;28;20504;-75
2021/12/04 11:46:45;;;;;;;0.70;0.70;;;4.10;99.90;;;;;;5278448;28;20031;-75
2021/12/04 11:49:24;;;;;;;0.68;0.68;;;4.40;99.90;;;;;;5263727;28;20023;-76
2021/12/04 11:52:11;;;;;;;0.50;0.50;;;4.50;99.90;;;;;;5247454;28;20310;-75
2021/12/04 11:55:00;;;;;;;0.93;0.90;;;4.60;99.90;;;;;;5266429;28;20039;-75
2021/12/04 11:57:42;;;;;;;0.45;0.45;;;5.00;99.90;;;;;;5284507;28;20023;-74
2021/12/04 12:00:28;;;;;;;0.80;0.80;;;5.20;99.90;;;;;;5276548;28;20027;-77
2021/12/04 12:03:12;;;;;;;0.82;0.82;;;5.30;99.90;;;;;;5284906;28;20031;-76
2021/12/04 12:06:15;;;;;;;0.70;0.70;;;5.30;99.90;;;;;;5280177;28;20092;-75
2021/12/04 12:09:00;;;;;;;0.82;0.82;;;5.50;99.90;;;;;;5177789;28;20099;-75
2021/12/04 12:11:50;;;;;;;0.63;0.63;;;5.70;99.90;;;;;;5174866;28;20087;-75
2021/12/04 12:14:49;;;;;;;1.60;1.50;;;6.00;99.90;;;;;;5177390;28;20092;-75
2021/12/04 12:17:40;;;;;;;0.98;0.98;;;6.40;99.90;;;;;;5159657;28;20128;-75
2021/12/04 12:20:30;;;;;;;1.25;1.25;;;6.40;99.90;;;;;;5157829;28;20065;-77
2021/12/04 12:23:08;;;;;;;0.77;0.77;;;6.30;99.90;;;;;;5159766;28;20101;-75
2021/12/04 12:26:02;;;;;;;6.72;2.38;;;6.10;99.90;;;;;;5169635;28;20038;-75
2021/12/04 12:32:14;;;;;;;0.90;0.90;;;6.40;99.90;;;;;;5137164;28;20043;-76
2021/12/04 12:37:33;;;;;;;0.70;0.70;;;6.70;99.90;;;;;;5120486;28;20038;-76
2021/12/04 12:40:10;;;;;;;1.15;1.15;;;6.50;99.90;;;;;;5096750;28;20042;-76
2021/12/04 12:42:46;;;;;;;0.82;0.82;;;6.70;99.90;;;;;;5125990;28;20121;-75
2021/12/04 12:45:31;;;;;;;1.02;1.02;;;6.80;99.90;;;;;;5206259;28;20040;-77
2021/12/04 12:48:09;;;;;;;1.20;1.20;;;6.80;99.90;;;;;;5254734;28;20043;-76
2021/12/04 12:50:47;;;;;;;0.90;0.90;;;6.70;99.90;;;;;;5261087;28;20032;-76
2021/12/04 12:53:26;;;;;;;0.60;0.60;;;6.80;99.90;;;;;;5257975;28;20024;-76
2021/12/04 12:56:13;;;;;;;1.13;1.13;;;6.60;99.90;;;;;;5258044;28;20418;-74
2021/12/04 12:59:04;;;;;;;0.80;0.80;;;6.40;99.90;;;;;;5251413;28;21316;-75
2021/12/04 13:13:45;;;;;;;1.30;1.30;;;6.40;99.90;;;;;;5257423;28;20043;-75
2021/12/04 13:16:21;;;;;;;0.60;0.60;;;6.30;99.90;;;;;;5258014;28;20032;-74
2021/12/04 13:19:04;;;;;;;0.73;0.73;;;6.10;99.90;;;;;;5250831;28;20507;-75
2021/12/04 13:21:38;;;;;;;0.93;0.93;;;5.80;99.90;;;;;;5254167;28;20241;-75
2021/12/04 13:24:13;;;;;;;0.80;0.80;;;5.90;99.90;;;;;;5258219;28;20028;-74
2021/12/04 13:26:52;;;;;;;1.05;1.05;;;5.80;99.90;;;;;;5258409;28;20051;-75
2021/12/04 13:29:28;;;;;;;0.70;0.70;;;5.80;99.90;;;;;;5257877;28;20056;-75
2021/12/04 13:31:59;;;;;;;0.90;0.90;;;5.80;99.90;;;;;;5259749;28;20085;-75
2021/12/04 13:34:35;;;;;;;0.90;0.90;;;5.80;99.90;;;;;;5257863;28;20027;-74
2021/12/04 13:37:09;;;;;;;0.70;0.70;;;5.70;99.90;;;;;;5238743;28;20081;-74
2021/12/04 13:39:45;;;;;;;0.70;0.70;;;5.60;99.90;;;;;;5241325;28;20028;-74
2021/12/04 13:42:16;;;;;;;0.77;0.77;;;5.60;99.90;;;;;;5254838;28;20047;-74
2021/12/04 13:44:56;;;;;;;0.40;0.40;;;5.60;99.90;;;;;;5255951;28;20059;-75
2021/12/04 13:47:30;;;;;;;2.08;1.98;;;5.50;99.90;;;;;;5241305;28;20051;-75
2021/12/04 13:50:09;;;;;;;0.85;0.85;;;5.40;99.90;;;;;;5257111;28;20039;-74
2021/12/04 13:52:43;;;;;;;0.50;0.50;;;5.30;99.90;;;;;;5257811;28;20039;-75
2021/12/04 13:55:18;;;;;;;0.80;0.80;;;5.30;99.90;;;;;;5243705;28;20357;-75
2021/12/04 13:57:50;;;;;;;0.90;0.90;;;5.20;99.90;;;;;;5243333;28;20153;-74
2021/12/04 14:00:21;;;;;;;0.65;0.65;;;5.10;99.90;;;;;;5239570;28;20075;-74
2021/12/04 14:02:58;;;;;;;0.60;0.60;;;4.80;99.90;;;;;;5260472;28;20039;-74
2021/12/04 14:05:31;;;;;;;1.23;1.23;;;4.70;99.90;;;;;;5263044;28;20067;-75
2021/12/04 14:08:06;;;;;;;1.00;1.00;;;4.60;99.90;;;;;;5263029;28;20036;-75
2021/12/04 14:10:42;;;;;;;0.80;0.80;;;4.50;99.90;;;;;;5262249;28;20445;-75
2021/12/04 14:13:20;;;;;;;0.98;0.98;;;4.30;99.90;;;;;;5260599;28;20544;-76
2021/12/04 14:15:55;;;;;;;0.75;0.75;;;4.10;99.90;;;;;;5247330;28;20084;-75
2021/12/04 14:18:30;;;;;;;0.85;0.85;;;4.10;99.90;;;;;;5261404;28;20466;-75
2021/12/04 14:21:04;;;;;;;1.15;1.15;;;4.00;99.90;;;;;;5260723;28;20043;-75
2021/12/04 14:23:35;;;;;;;0.82;0.82;;;3.90;99.90;;;;;;5283267;28;20348;-75
2021/12/04 14:26:08;;;;;;;0.43;0.43;;;3.90;99.90;;;;;;5250756;28;20040;-75
2021/12/04 14:28:42;;;;;;;0.70;0.70;;;3.80;99.90;;;;;;5256010;28;20044;-75
2021/12/04 14:31:21;;;;;;;1.33;1.33;;;3.80;99.90;;;;;;5250268;28;20028;-75
2021/12/04 14:33:52;;;;;;;0.60;0.60;;;3.80;99.90;;;;;;5242648;28;20409;-75
2021/12/04 14:36:26;;;;;;;1.90;1.10;;;3.80;99.90;;;;;;5244861;28;20032;-76
2021/12/04 14:39:03;;;;;;;;;;;3.80;99.90;;;;;;5243998;28;20254;-75
2021/12/04 14:41:39;;;;;;;0.60;0.60;;;3.80;99.90;;;;;;5277065;28;19966;-74
2021/12/04 14:44:16;;;;;;;0.70;0.70;;;3.80;99.90;;;;;;5262464;28;20023;-75
2021/12/04 14:46:50;;;;;;;0.90;0.90;;;3.70;99.90;;;;;;5264298;28;20106;-75
2021/12/04 14:49:21;;;;;;;0.60;0.60;;;3.80;99.90;;;;;;5267881;28;20028;-75
2021/12/04 14:51:52;;;;;;;0.68;0.68;;;3.70;99.90;;;;;;5284853;28;20146;-75
2021/12/04 14:54:31;;;;;;;0.73;0.73;;;3.70;99.90;;;;;;5284591;27;20100;-75
2021/12/04 14:57:14;;;;;;;1.48;1.48;;;3.70;99.90;;;;;;5247253;28;20100;-75
2021/12/04 14:59:46;;;;;;;0.90;0.90;;;3.60;99.90;;;;;;5262282;28;20040;-74
2021/12/04 15:02:20;;;;;;;0.63;0.63;;;3.60;99.90;;;;;;5284618;28;20035;-75
2021/12/04 15:04:54;;;;;;;0.63;0.63;;;3.60;99.90;;;;;;5261912;28;20411;-75
2021/12/04 15:07:31;;;;;;;0.73;0.73;;;3.60;99.90;;;;;;5262337;28;20036;-75
2021/12/04 15:10:18;;;;;;;0.60;0.60;;;3.60;99.90;;;;;;5280636;28;20027;-76
2021/12/04 15:12:57;;;;;;;0.65;0.65;;;3.60;99.90;;;;;;5276066;28;20023;-75
2021/12/04 15:15:36;;;;;;;0.85;0.85;;;3.60;99.90;;;;;;5285194;27;20035;-75
2021/12/04 15:18:12;;;;;;;0.55;0.55;;;3.60;99.90;;;;;;5283322;27;20032;-74
2021/12/04 15:21:00;;;;;;;1.50;1.40;;;3.60;99.90;;;;;;5278003;28;20032;-75
2021/12/04 15:23:36;;;;;;;0.50;0.50;;;3.60;99.90;;;;;;5284052;27;20547;-75
2021/12/04 15:26:20;;;;;;;1.45;1.38;;;3.60;99.90;;;;;;5287225;27;20035;-74
2021/12/04 15:28:57;;;;;;;2.30;2.15;;;3.50;99.90;;;;;;5280984;28;20429;-75
2021/12/04 15:31:29;;;;;;;0.70;0.70;;;3.50;99.90;;;;;;5250026;28;20035;-75
2021/12/04 15:34:00;;;;;;;1.02;1.02;;;3.50;99.90;;;;;;5264785;28;20043;-74
2021/12/04 15:36:42;;;;;;;0.65;0.65;;;3.60;99.90;;;;;;5281716;28;20487;-75
2021/12/04 15:39:31;;;;;;;1.23;1.23;;;3.60;99.90;;;;;;5277149;28;20024;-75
2021/12/04 15:45:05;;;;;;;0.80;0.80;;;3.60;99.90;;;;;;5258647;28;20035;-75
2021/12/04 15:47:45;;;;;;;0.95;0.95;;;3.60;99.90;;;;;;5262271;28;20032;-75
2021/12/04 15:50:43;;;;;;;0.60;0.60;;;3.60;99.90;;;;;;5264928;28;20096;-75
2021/12/04 15:53:15;;;;;;;0.57;0.57;;;3.60;99.90;;;;;;5259053;28;20031;-74
2021/12/04 15:55:55;;;;;;;0.50;0.50;;;3.60;99.90;;;;;;5258414;28;20083;-74
2021/12/04 15:58:33;;;;;;;0.45;0.45;;;3.60;99.90;;;;;;5264614;28;20051;-75
2021/12/04 16:01:09;;;;;;;0.45;0.45;;;3.50;99.90;;;;;;5262051;28;20025;-75
2021/12/04 16:03:44;;;;;;;0.60;0.60;;;3.50;99.90;;;;;;5245274;28;20518;-75
2021/12/04 16:06:15;;;;;;;0.70;0.70;;;3.40;99.90;;;;;;5263319;28;20028;-75
2021/12/04 16:08:49;;;;;;;0.93;0.93;;;3.40;99.90;;;;;;5260947;28;20256;-74
2021/12/04 16:11:20;;;;;;;0.90;0.90;;;3.40;99.90;;;;;;5251520;28;20506;-74
2021/12/04 16:13:53;;;;;;;1.25;1.25;;;3.50;99.90;;;;;;5258312;28;20036;-75
2021/12/04 16:16:25;;;;;;;0.50;0.50;;;3.40;99.90;;;;;;5242778;28;20099;-74
2021/12/04 16:18:57;;;;;;;1.58;0.77;;;3.40;99.90;;;;;;5260220;28;20519;-76
2021/12/04 16:21:28;;;;;;;0.80;0.80;;;3.30;99.90;;;;;;5256709;28;20056;-75
2021/12/04 16:23:59;;;;;;;0.98;0.98;;;3.30;99.90;;;;;;5253760;28;20270;-73
2021/12/04 16:26:30;;;;;;;0.73;0.73;;;3.30;99.90;;;;;;5250893;28;20063;-75
2021/12/04 16:29:10;;;;;;;0.95;0.95;;;3.30;99.90;;;;;;5260997;28;20040;-74
2021/12/04 16:37:44;;;;;;;0.70;0.70;;;3.30;99.90;;;;;;5255912;28;20035;-75
2021/12/04 16:40:21;;;;;;;1.00;1.00;;;3.40;99.90;;;;;;5261526;28;20043;-76
2021/12/04 16:43:05;;;;;;;0.55;0.55;;;3.30;99.90;;;;;;5243207;28;20036;-75
2021/12/04 16:45:41;;;;;;;1.88;1.77;;;3.30;99.90;;;;;;5262065;28;20050;-74